Time;durP1;ratioP1;P1;durP2;ratioP2;P2;SDS_P1;SDS_P2;PMS_P1;PMS_P2;Temp;Humidity;BMP_temperature;BMP_pressure;BME280_temperature;BME280_humidity;BME280_pressure;Samples;Min_cycle;Max_cycle;Signal;HPM_P1;HPM_P2
2024/03/28 00:00:45;;;;;;;;;;;;;;;4.50;100.00;96857.31;4918719;29;19926;-81
2024/03/28 00:03:10;;;;;;;;;;;;;;;4.48;100.00;96853.97;4918473;29;20339;-81
2024/03/28 00:05:36;;;;;;;;;;;;;;;4.50;100.00;96853.81;4918465;29;19958;-81
2024/03/28 00:08:01;;;;;;;;;;;;;;;4.54;100.00;96847.44;4901517;29;19923;-83
2024/03/28 00:10:26;;;;;;;;;;;;;;;4.50;100.00;96841.56;4918482;29;19983;-83
2024/03/28 00:12:51;;;;;;;;;;;;;;;4.47;100.00;96838.31;4917102;29;19977;-83
2024/03/28 08:57:56;;;;;;;;;;;;;;;4.38;100.00;96920.19;5249310;23;19983;-89
2024/03/28 09:00:25;;;;;;;;;;;;;;;4.34;100.00;96937.88;4890943;29;20022;-84
2024/03/28 09:02:50;;;;;;;;;;;;;;;4.37;100.00;96935.06;4891424;29;19926;-82
2024/03/28 09:05:15;;;;;;;;;;;;;;;4.36;100.00;96947.34;4907793;29;19919;-83
2024/03/28 09:07:41;;;;;;;;;;;;;;;4.36;100.00;96942.09;4907798;29;20393;-87
2024/03/28 09:10:07;;;;;;;;;;;;;;;4.33;100.00;96944.06;4908366;29;20370;-88
2024/03/28 09:12:34;;;;;;;;;;;;;;;4.32;100.00;96945.84;4906976;29;19924;-84
2024/03/28 09:15:00;;;;;;;;;;;;;;;4.41;100.00;96956.69;4907934;29;19962;-84
2024/03/28 09:17:25;;;;;;;;;;;;;;;4.36;100.00;96962.22;4908139;29;19954;-88
2024/03/28 09:19:52;;;;;;;;;;;;;;;4.31;100.00;96973.00;4891186;29;19923;-84
2024/03/28 09:22:19;;;;;;;;;;;;;;;4.37;100.00;96992.72;4907402;29;19923;-85
2024/03/28 09:24:44;;;;;;;;;;;;;;;4.39;100.00;97019.72;4907783;29;19919;-82
2024/03/28 09:27:09;;;;;;;;;;;;;;;4.46;100.00;97014.94;4889235;29;19919;-83
2024/03/28 09:29:35;;;;;;;;;;;;;;;4.35;100.00;97018.22;4908465;29;19919;-88
2024/03/28 09:32:00;;;;;;;;;;;;;;;4.45;100.00;97019.34;4891075;29;19935;-89
2024/03/28 09:34:25;;;;;;;;;;;;;;;4.54;100.00;97024.00;4907411;29;20418;-88
2024/03/28 09:36:52;;;;;;;;;;;;;;;4.54;100.00;97029.22;4907095;29;19934;-82
2024/03/28 09:39:19;;;;;;;;;;;;;;;4.49;100.00;97036.56;4907729;29;19919;-84
2024/03/28 09:41:49;;;;;;;;;;;;;;;4.42;100.00;97045.75;4906263;29;20365;-84
2024/03/28 09:44:20;;;;;;;;;;;;;;;4.47;100.00;97042.84;4906999;29;19920;-90
2024/03/28 09:46:48;;;;;;;;;;;;;;;4.42;100.00;97045.75;4890246;29;20428;-82
2024/03/28 09:49:15;;;;;;;;;;;;;;;4.57;100.00;97049.19;4907144;29;19930;-87
2024/03/28 09:51:41;;;;;;;;;;;;;;;4.55;100.00;97051.91;4907112;29;19923;-87
2024/03/28 09:54:08;;;;;;;;;;;;;;;4.51;100.00;97062.69;4890522;29;19923;-85
2024/03/28 09:56:33;;;;;;;;;;;;;;;4.61;100.00;97061.19;4905837;29;20223;-84
2024/03/28 09:58:59;;;;;;;;;;;;;;;4.49;100.00;97059.31;4906826;29;20439;-84
2024/03/28 10:01:25;;;;;;;;;;;;;;;4.57;100.00;97079.84;4906755;29;19975;-82
2024/03/28 10:04:16;;;;;;;;;;;;;;;4.67;100.00;97073.91;4907627;29;19919;-85
2024/03/28 10:06:48;;;;;;;;;;;;;;;4.62;100.00;97083.84;4903539;29;20240;-82
2024/03/28 10:09:14;;;;;;;;;;;;;;;4.60;100.00;97087.50;4906632;29;19923;-85
2024/03/28 10:11:39;;;;;;;;;;;;;;;4.57;100.00;97104.25;4905801;29;19962;-85
2024/03/28 10:14:11;;;;;;;;;;;;;;;4.66;100.00;97108.97;4906974;29;19957;-85
2024/03/28 10:16:37;;;;;;;;;;;;;;;4.64;100.00;97112.59;4906556;29;19919;-81
2024/03/28 10:19:05;;;;;;;;;;;;;;;4.75;100.00;97104.91;4890560;29;19930;-85
2024/03/28 10:21:30;;;;;;;;;;;;;;;4.62;100.00;97119.72;4889952;29;20397;-83
2024/03/28 10:23:56;;;;;;;;;;;;;;;4.71;100.00;97127.88;4907122;29;19915;-84
2024/03/28 10:26:22;;;;;;;;;;;;;;;4.76;100.00;97117.09;4905670;29;19923;-83
2024/03/28 10:28:47;;;;;;;;;;;;;;;4.68;100.00;97112.31;4907611;29;20022;-91
2024/03/28 10:31:21;;;;;;;;;;;;;;;4.61;100.00;97129.38;4906424;29;19927;-86
2024/03/28 10:33:46;;;;;;;;;;;;;;;4.63;100.00;97124.03;4906199;29;19927;-88
2024/03/28 10:36:20;;;;;;;;;;;;;;;4.59;100.00;97119.91;4906885;29;20003;-86
2024/03/28 10:38:45;;;;;;;;;;;;;;;4.59;100.00;97122.53;4906471;29;19930;-85
2024/03/28 10:41:13;;;;;;;;;;;;;;;4.61;100.00;97123.28;4906723;29;20310;-85
2024/03/28 10:43:40;;;;;;;;;;;;;;;4.63;100.00;97124.03;4905570;29;20811;-87
2024/03/28 10:46:12;;;;;;;;;;;;;;;4.61;100.00;97128.53;4906922;29;19923;-86
2024/03/28 10:48:40;;;;;;;;;;;;;;;4.64;100.00;97121.34;4906198;29;20524;-89
2024/03/28 10:51:08;;;;;;;;;;;;;;;4.77;100.00;97133.66;4889246;29;19919;-85
2024/03/28 10:53:39;;;;;;;;;;;;;;;4.64;100.00;97138.81;4906250;29;19993;-85
2024/03/28 10:56:17;;;;;;;;;;;;;;;4.59;100.00;97143.50;4906698;29;20018;-85
2024/03/28 10:58:43;;;;;;;;;;;;;;;4.66;100.00;97161.41;4905926;29;19923;-86
2024/03/28 11:01:08;;;;;;;;;;;;;;;4.70;100.00;97148.94;4906650;29;19927;-85
2024/03/28 11:03:34;;;;;;;;;;;;;;;4.65;100.00;97156.25;4906064;29;19926;-88
2024/03/28 11:06:00;;;;;;;;;;;;;;;4.71;100.00;97156.72;4906291;29;19920;-88
2024/03/28 11:08:29;;;;;;;;;;;;;;;4.61;100.00;97180.97;4889020;29;20389;-85
2024/03/28 11:10:55;;;;;;;;;;;;;;;4.73;100.00;97156.63;4906777;29;19959;-85
2024/03/28 11:13:21;;;;;;;;;;;;;;;4.69;100.00;97183.97;4905058;29;20406;-83
2024/03/28 11:15:46;;;;;;;;;;;;;;;4.69;100.00;97186.59;4906016;29;19955;-84
2024/03/28 11:18:15;;;;;;;;;;;;;;;4.65;100.00;97187.75;4906444;29;19958;-84
2024/03/28 11:20:50;;;;;;;;;;;;;;;4.72;100.00;97189.03;4906633;29;20407;-87
2024/03/28 11:23:15;;;;;;;;;;;;;;;4.57;100.00;97187.34;4906285;29;19919;-86
2024/03/28 11:25:46;;;;;;;;;;;;;;;4.59;100.00;97209.09;4906239;29;20022;-87
2024/03/28 11:28:11;;;;;;;;;;;;;;;4.61;100.00;97199.34;4904809;29;20031;-82
2024/03/28 11:30:38;;;;;;;;;;;;;;;4.61;100.00;97201.97;4908618;29;20387;-82
2024/03/28 11:33:03;;;;;;;;;;;;;;;4.55;100.00;97204.03;4909699;29;19950;-82
2024/03/28 11:35:29;;;;;;;;;;;;;;;4.60;100.00;97208.16;4910028;29;19967;-86
2024/03/28 11:38:11;;;;;;;;;;;;;;;4.62;100.00;97211.53;4909728;29;19927;-87
2024/03/28 11:40:37;;;;;;;;;;;;;;;4.61;100.00;97196.72;4909407;29;19919;-83
2024/03/28 11:43:07;;;;;;;;;;;;;;;4.59;100.00;97198.59;4907972;29;19925;-82
2024/03/28 11:45:33;;;;;;;;;;;;;;;4.59;100.00;97209.91;4910193;29;20379;-83
2024/03/28 11:47:59;;;;;;;;;;;;;;;4.67;100.00;97210.31;4909252;29;20010;-83
2024/03/28 11:50:24;;;;;;;;;;;;;;;7.33;100.00;97193.94;4909049;29;19926;-81
2024/03/28 11:52:49;;;;;;;;;;;;;;;5.51;100.00;97206.06;4909571;29;19931;-89
2024/03/28 11:55:15;;;;;;;;;;;;;;;5.09;100.00;97228.81;4909257;29;19967;-82
2024/03/28 11:57:41;;;;;;;;;;;;;;;5.00;100.00;97229.38;4907443;29;20338;-85
2024/03/28 12:00:07;;;;;;;;;;;;;;;4.86;100.00;97238.91;4909091;29;19928;-84
2024/03/28 12:02:32;;;;;;;;;;;;;;;4.93;100.00;97236.78;4891997;29;19926;-84
2024/03/28 12:05:01;;;;;;;;;;;;;;;4.83;100.00;97243.50;4909221;29;19951;-84
2024/03/28 12:07:26;;;;;;;;;;;;;;;4.76;100.00;97256.16;4909376;29;20034;-83
2024/03/28 12:09:52;;;;;;;;;;;;;;;4.84;100.00;97246.03;4908820;29;20055;-85
2024/03/28 12:12:17;;;;;;;;;;;;;;;4.78;100.00;97241.16;4907867;29;19919;-83
2024/03/28 12:14:42;;;;;;;;;;;;;;;4.81;100.00;97240.97;4909130;29;19930;-85
2024/03/28 12:17:07;;;;;;;;;;;;;;;4.76;100.00;97248.28;4908856;29;19923;-81
2024/03/28 12:19:33;;;;;;;;;;;;;;;4.81;100.00;97251.47;4908834;29;19928;-85
2024/03/28 12:22:02;;;;;;;;;;;;;;;4.88;100.00;97263.28;4892097;29;20017;-84
2024/03/28 12:24:28;;;;;;;;;;;;;;;4.83;100.00;97260.06;4908701;29;19919;-83
2024/03/28 12:26:55;;;;;;;;;;;;;;;4.78;100.00;97263.94;4907004;29;19978;-90
2024/03/28 12:29:24;;;;;;;;;;;;;;;4.71;100.00;97269.53;4909081;29;19990;-88
2024/03/28 12:31:49;;;;;;;;;;;;;;;4.69;100.00;97263.53;4909364;29;19927;-87
2024/03/28 12:34:15;;;;;;;;;;;;;;;4.67;100.00;97264.56;4908317;29;19919;-84
2024/03/28 12:36:40;;;;;;;;;;;;;;;4.72;100.00;97262.50;4908893;29;19923;-82
2024/03/28 12:39:06;;;;;;;;;;;;;;;4.81;100.00;97282.94;4908731;29;20327;-83
2024/03/28 12:41:31;;;;;;;;;;;;;;;4.78;100.00;97282.28;4906452;29;19928;-84
2024/03/28 12:43:57;;;;;;;;;;;;;;;4.70;100.00;97280.94;4908580;29;19930;-81
2024/03/28 12:46:23;;;;;;;;;;;;;;;4.73;100.00;97286.00;4908667;29;20298;-85
2024/03/28 12:48:48;;;;;;;;;;;;;;;4.68;100.00;97292.47;4891469;29;19929;-80
2024/03/28 12:51:13;;;;;;;;;;;;;;;4.66;100.00;97292.56;4908079;29;19915;-82
2024/03/28 12:53:39;;;;;;;;;;;;;;;4.65;100.00;97304.00;4908099;29;19982;-82
2024/03/28 12:56:04;;;;;;;;;;;;;;;4.71;100.00;97294.94;4891664;29;19925;-86
2024/03/28 12:58:29;;;;;;;;;;;;;;;4.69;100.00;97302.03;4906761;29;19931;-83
2024/03/28 13:00:55;;;;;;;;;;;;;;;4.57;100.00;97308.00;4908026;29;20367;-82
2024/03/28 13:03:20;;;;;;;;;;;;;;;4.67;100.00;97317.84;4907970;29;20371;-84
2024/03/28 13:05:49;;;;;;;;;;;;;;;4.60;100.00;97313.06;4891046;29;19975;-84
2024/03/28 13:08:15;;;;;;;;;;;;;;;4.57;100.00;97319.34;4907601;29;19942;-91
2024/03/28 13:10:40;;;;;;;;;;;;;;;4.70;100.00;97301.09;4891074;29;20449;-85
2024/03/28 13:13:05;;;;;;;;;;;;;;;4.76;100.00;97316.47;4890151;29;19919;-82
2024/03/28 13:15:30;;;;;;;;;;;;;;;4.70;100.00;97316.84;4907813;29;19924;-85
2024/03/28 13:17:57;;;;;;;;;;;;;;;4.73;100.00;97308.78;4907575;29;20080;-81
2024/03/28 13:20:22;;;;;;;;;;;;;;;4.76;100.00;97311.25;4907913;29;20272;-84
2024/03/28 13:22:49;;;;;;;;;;;;;;;4.73;100.00;97319.28;4907942;29;19926;-87
2024/03/28 13:25:14;;;;;;;;;;;;;;;4.86;100.00;97314.16;4907935;29;19943;-85
2024/03/28 13:27:40;;;;;;;;;;;;;;;4.83;100.00;97322.22;4906496;29;20014;-84
2024/03/28 13:30:06;;;;;;;;;;;;;;;4.71;100.00;97313.28;4907280;29;20356;-86
2024/03/28 13:32:31;;;;;;;;;;;;;;;4.67;100.00;97311.78;4907256;29;20010;-85
2024/03/28 13:34:56;;;;;;;;;;;;;;;4.66;100.00;97304.81;4907956;29;20363;-82
2024/03/28 13:37:21;;;;;;;;;;;;;;;4.65;100.00;97301.38;4907668;29;20442;-87
2024/03/28 13:39:47;;;;;;;;;;;;;;;4.64;100.00;97311.94;4906836;29;19926;-84
2024/03/28 13:42:12;;;;;;;;;;;;;;;4.86;100.00;97322.03;4906173;29;20360;-84
2024/03/28 13:44:37;;;;;;;;;;;;;;;4.71;100.00;97319.38;4907055;29;20283;-84
2024/03/28 13:47:06;;;;;;;;;;;;;;;4.78;100.00;97319.84;4906403;29;20410;-83
2024/03/28 13:49:31;;;;;;;;;;;;;;;4.64;100.00;97323.31;4890339;29;19981;-82
2024/03/28 13:52:03;;;;;;;;;;;;;;;4.67;100.00;97338.00;4906743;29;20347;-86
2024/03/28 13:54:30;;;;;;;;;;;;;;;4.76;100.00;97361.09;4906950;29;19926;-85
2024/03/28 13:56:55;;;;;;;;;;;;;;;4.76;100.00;97340.09;4896556;29;19919;-83
2024/03/28 13:59:21;;;;;;;;;;;;;;;4.70;100.00;97335.19;4906680;29;19937;-83
2024/03/28 14:01:46;;;;;;;;;;;;;;;4.70;100.00;97343.91;4906644;29;19924;-84
2024/03/28 14:04:13;;;;;;;;;;;;;;;4.69;100.00;97352.72;4889700;29;20283;-84
2024/03/28 14:06:41;;;;;;;;;;;;;;;4.65;100.00;97355.63;4906920;29;20367;-81
2024/03/28 14:09:09;;;;;;;;;;;;;;;4.68;100.00;97358.91;4906817;29;19920;-83
2024/03/28 14:11:35;;;;;;;;;;;;;;;4.72;100.00;97354.31;4888559;29;19923;-84
2024/03/28 14:14:00;;;;;;;;;;;;;;;4.67;100.00;97366.84;4907028;29;19975;-84
2024/03/28 14:16:25;;;;;;;;;;;;;;;4.61;100.00;97369.81;4906767;29;19926;-83
2024/03/28 14:18:51;;;;;;;;;;;;;;;4.69;100.00;97365.84;4906398;29;19933;-84
2024/03/28 14:21:16;;;;;;;;;;;;;;;4.65;100.00;97360.84;4906581;29;20224;-82
2024/03/28 14:23:41;;;;;;;;;;;;;;;4.62;100.00;97358.41;4906219;29;20283;-91
2024/03/28 14:26:07;;;;;;;;;;;;;;;4.77;100.00;97364.53;4906443;29;19919;-83
2024/03/28 14:28:33;;;;;;;;;;;;;;;4.71;100.00;97360.50;4905582;29;20523;-84
2024/03/28 14:31:08;;;;;;;;;;;;;;;4.76;100.00;97371.59;4906545;29;20280;-83
2024/03/28 14:33:34;;;;;;;;;;;;;;;4.79;100.00;97374.03;4906343;29;20014;-82
2024/03/28 14:36:03;;;;;;;;;;;;;;;4.80;100.00;97372.25;4906428;29;19951;-83
2024/03/28 14:38:28;;;;;;;;;;;;;;;4.86;100.00;97385.00;4906527;29;19927;-84
2024/03/28 14:40:55;;;;;;;;;;;;;;;4.84;100.00;97387.72;4906093;29;20002;-82
2024/03/28 14:43:20;;;;;;;;;;;;;;;4.83;100.00;97393.06;4905282;29;19919;-84
2024/03/28 14:45:45;;;;;;;;;;;;;;;4.83;100.00;97386.03;4906005;29;19926;-81
2024/03/28 14:48:11;;;;;;;;;;;;;;;4.68;100.00;97379.06;4905841;29;20025;-81
2024/03/28 14:50:36;;;;;;;;;;;;;;;4.70;100.00;97387.66;4889649;29;20458;-85
2024/03/28 14:53:01;;;;;;;;;;;;;;;4.69;100.00;97376.34;4905752;29;20323;-85
2024/03/28 14:55:27;;;;;;;;;;;;;;;4.71;100.00;97386.75;4905984;29;19971;-84
2024/03/28 14:57:52;;;;;;;;;;;;;;;4.62;100.00;97387.25;4905162;29;20371;-82
2024/03/28 15:00:17;;;;;;;;;;;;;;;4.58;100.00;97385.72;4888596;29;20298;-82
2024/03/28 15:02:42;;;;;;;;;;;;;;;4.57;100.00;97384.91;4905916;29;19931;-82
2024/03/28 15:05:08;;;;;;;;;;;;;;;4.56;100.00;97377.94;4910021;29;19944;-84
2024/03/28 15:07:33;;;;;;;;;;;;;;;4.55;100.00;97381.53;4892796;29;19923;-85
2024/03/28 15:09:58;;;;;;;;;;;;;;;4.62;100.00;97379.41;4909823;29;19927;-82
2024/03/28 15:12:23;;;;;;;;;;;;;;;4.61;100.00;97390.81;4909400;29;19923;-83
2024/03/28 15:14:49;;;;;;;;;;;;;;;4.68;100.00;97379.06;4892986;29;19920;-84
2024/03/28 15:17:14;;;;;;;;;;;;;;;4.71;100.00;97397.25;4909721;29;19977;-83
2024/03/28 15:19:39;;;;;;;;;;;;;;;4.78;100.00;97416.09;4909802;29;19923;-84
2024/03/28 15:22:05;;;;;;;;;;;;;;;4.86;100.00;97463.72;4910435;29;20385;-85
2024/03/28 15:24:37;;;;;;;;;;;;;;;5.00;100.00;97490.03;4909954;29;19926;-81
2024/03/28 15:27:03;;;;;;;;;;;;;;;4.76;100.00;97447.66;4908875;29;20279;-82
2024/03/28 15:29:29;;;;;;;;;;;;;;;4.71;100.00;97449.72;4910295;29;19923;-85
2024/03/28 15:31:54;;;;;;;;;;;;;;;4.63;100.00;97446.69;4910150;29;20427;-86
2024/03/28 15:34:19;;;;;;;;;;;;;;;4.57;100.00;97447.84;4909360;29;19924;-87
2024/03/28 15:36:45;;;;;;;;;;;;;;;4.60;100.00;97434.56;4909872;29;20011;-83
2024/03/28 15:39:10;;;;;;;;;;;;;;;4.61;100.00;97433.66;4909743;29;19978;-82
2024/03/28 15:41:35;;;;;;;;;;;;;;;4.59;100.00;97434.66;4908184;29;20189;-83
2024/03/28 15:44:00;;;;;;;;;;;;;;;4.60;100.00;97431.94;4909243;29;19931;-82
2024/03/28 15:46:26;;;;;;;;;;;;;;;4.49;100.00;97423.84;4909809;29;19971;-87
2024/03/28 15:48:51;;;;;;;;;;;;;;;4.48;100.00;97438.72;4909270;29;19924;-85
2024/03/28 15:51:16;;;;;;;;;;;;;;;4.58;100.00;97433.81;4909051;29;20008;-81
2024/03/28 15:53:42;;;;;;;;;;;;;;;4.52;100.00;97427.13;4909136;29;19923;-83
2024/03/28 15:56:07;;;;;;;;;;;;;;;4.57;100.00;97437.34;4909579;29;19919;-81
2024/03/28 15:58:36;;;;;;;;;;;;;;;4.50;100.00;97430.75;4890591;29;19923;-87
2024/03/28 16:01:01;;;;;;;;;;;;;;;4.51;100.00;97427.22;4908737;29;19923;-85
2024/03/28 16:03:27;;;;;;;;;;;;;;;4.50;100.00;97415.00;4892499;29;19975;-83
2024/03/28 16:05:52;;;;;;;;;;;;;;;4.50;100.00;97426.38;4909514;29;19923;-82
2024/03/28 16:08:18;;;;;;;;;;;;;;;4.62;100.00;97424.00;4908872;29;20260;-83
2024/03/28 16:10:43;;;;;;;;;;;;;;;4.53;100.00;97423.56;4908790;29;19923;-81
2024/03/28 16:13:08;;;;;;;;;;;;;;;4.49;100.00;97424.66;4908043;29;19923;-82
2024/03/28 16:15:35;;;;;;;;;;;;;;;4.78;100.00;97427.44;4908011;29;19975;-83
2024/03/28 16:18:01;;;;;;;;;;;;;;;4.88;100.00;97430.38;4908368;29;19924;-85
2024/03/28 16:20:26;;;;;;;;;;;;;;;4.77;100.00;97420.50;4908390;29;19942;-83
2024/03/28 16:22:51;;;;;;;;;;;;;;;4.78;100.00;97442.34;4908968;29;20010;-82
2024/03/28 16:25:17;;;;;;;;;;;;;;;4.65;100.00;97431.69;4913331;29;19977;-82
2024/03/28 16:27:42;;;;;;;;;;;;;;;4.57;100.00;97449.63;4916593;29;19927;-87
2024/03/28 16:30:08;;;;;;;;;;;;;;;4.63;100.00;97455.38;4918068;29;20041;-82
2024/03/28 16:32:33;;;;;;;;;;;;;;;4.82;100.00;97452.56;4917536;29;19923;-81
2024/03/28 16:34:58;;;;;;;;;;;;;;;4.63;100.00;97458.00;4918180;29;19919;-83
2024/03/28 16:37:23;;;;;;;;;;;;;;;4.60;100.00;97459.97;4918171;29;19942;-82
2024/03/28 16:39:51;;;;;;;;;;;;;;;4.70;100.00;97461.13;4917627;29;20010;-84
2024/03/28 16:42:16;;;;;;;;;;;;;;;4.64;100.00;97487.69;4916299;29;19927;-83
2024/03/28 16:44:41;;;;;;;;;;;;;;;4.84;100.00;97473.47;4917985;29;19929;-81
2024/03/28 16:47:09;;;;;;;;;;;;;;;4.83;100.00;97464.72;4917726;29;19923;-82
2024/03/28 16:49:35;;;;;;;;;;;;;;;4.76;100.00;97479.16;4917269;29;20381;-83
2024/03/28 16:52:05;;;;;;;;;;;;;;;4.77;100.00;97483.47;4915974;29;19924;-82
2024/03/28 16:54:30;;;;;;;;;;;;;;;4.64;100.00;97477.19;4918007;29;20270;-81
2024/03/28 16:56:56;;;;;;;;;;;;;;;4.78;100.00;97481.69;4916486;29;19919;-83
2024/03/28 16:59:21;;;;;;;;;;;;;;;4.63;100.00;97488.66;4916999;29;19923;-87
2024/03/28 17:01:46;;;;;;;;;;;;;;;4.61;100.00;97490.47;4916956;29;19938;-84
2024/03/28 17:04:11;;;;;;;;;;;;;;;4.57;100.00;97495.06;4899415;29;19931;-87
2024/03/28 17:06:36;;;;;;;;;;;;;;;4.57;100.00;97499.47;4917532;29;19958;-83
2024/03/28 17:09:02;;;;;;;;;;;;;;;4.57;100.00;97510.78;4917402;29;19919;-80
2024/03/28 17:11:27;;;;;;;;;;;;;;;4.60;100.00;97520.28;4916373;29;19991;-82
2024/03/28 17:13:52;;;;;;;;;;;;;;;4.60;100.00;97525.53;4899397;29;19973;-83
2024/03/28 17:16:18;;;;;;;;;;;;;;;4.60;100.00;97526.38;4916421;29;19927;-85
2024/03/28 17:18:44;;;;;;;;;;;;;;;4.61;100.00;97519.34;4916771;29;19923;-83
2024/03/28 17:21:09;;;;;;;;;;;;;;;4.54;100.00;97524.91;4917022;29;19987;-81
2024/03/28 17:23:34;;;;;;;;;;;;;;;4.53;100.00;97515.38;4916945;29;19931;-84
2024/03/28 17:26:03;;;;;;;;;;;;;;;4.59;100.00;97523.81;4916962;29;19919;-84
2024/03/28 17:28:28;;;;;;;;;;;;;;;4.71;100.00;97512.66;4915240;29;19953;-83
2024/03/28 17:30:53;;;;;;;;;;;;;;;4.60;100.00;97525.53;4916675;29;20371;-83
2024/03/28 17:33:19;;;;;;;;;;;;;;;4.49;100.00;97529.56;4917021;29;20306;-82
2024/03/28 17:35:44;;;;;;;;;;;;;;;4.55;100.00;97537.09;4899511;29;19978;-84
2024/03/28 17:38:09;;;;;;;;;;;;;;;4.49;100.00;97534.81;4916109;29;19927;-78
2024/03/28 17:40:34;;;;;;;;;;;;;;;4.51;100.00;97546.06;4916734;29;19982;-81
2024/03/28 17:43:07;;;;;;;;;;;;;;;4.49;100.00;97560.19;4915435;29;19923;-81
2024/03/28 17:45:34;;;;;;;;;;;;;;;4.45;100.00;97559.53;4916895;29;20371;-83
2024/03/28 17:48:00;;;;;;;;;;;;;;;4.49;100.00;97550.56;4915968;29;20309;-82
2024/03/28 17:50:25;;;;;;;;;;;;;;;4.44;100.00;97554.38;4915687;29;19973;-82
2024/03/28 17:52:50;;;;;;;;;;;;;;;4.43;100.00;97563.16;4916610;29;20414;-81
2024/03/28 17:55:15;;;;;;;;;;;;;;;4.39;100.00;97567.72;4916854;29;20298;-84
2024/03/28 17:57:41;;;;;;;;;;;;;;;4.51;100.00;97580.16;4914154;29;19927;-83
2024/03/28 18:00:06;;;;;;;;;;;;;;;4.49;100.00;97595.13;4914204;29;19930;-80
2024/03/28 18:02:32;;;;;;;;;;;;;;;4.40;100.00;97600.03;4899369;29;19923;-81
2024/03/28 18:04:59;;;;;;;;;;;;;;;4.36;100.00;97594.94;4916389;29;20803;-83
2024/03/28 18:07:26;;;;;;;;;;;;;;;4.45;100.00;97611.09;4915992;29;19923;-84
2024/03/28 18:09:51;;;;;;;;;;;;;;;4.42;100.00;97616.50;4916449;29;19942;-85
2024/03/28 18:12:17;;;;;;;;;;;;;;;4.40;100.00;97619.22;4913250;29;20318;-81
2024/03/28 18:14:43;;;;;;;;;;;;;;;4.35;100.00;97629.09;4915613;29;19933;-81
2024/03/28 18:17:08;;;;;;;;;;;;;;;4.43;100.00;97624.31;4915628;29;20017;-82
2024/03/28 18:19:33;;;;;;;;;;;;;;;4.41;100.00;97614.84;4915945;29;19941;-82
2024/03/28 18:21:59;;;;;;;;;;;;;;;4.36;100.00;97628.19;4916288;29;19923;-83
2024/03/28 18:24:24;;;;;;;;;;;;;;;4.34;100.00;97638.75;4914933;29;19987;-84
2024/03/28 18:26:50;;;;;;;;;;;;;;;4.36;100.00;97639.50;4897441;29;20393;-84
2024/03/28 18:29:15;;;;;;;;;;;;;;;4.36;100.00;97643.91;4916110;29;20390;-82
2024/03/28 18:31:41;;;;;;;;;;;;;;;4.41;100.00;97647.16;4914909;29;19931;-84
2024/03/28 18:34:06;;;;;;;;;;;;;;;4.39;100.00;97653.38;4915649;29;20006;-82
2024/03/28 18:36:32;;;;;;;;;;;;;;;4.35;100.00;97652.69;4915945;29;19923;-89
2024/03/28 18:38:57;;;;;;;;;;;;;;;4.35;100.00;97658.78;4915417;29;19965;-80
2024/03/28 18:41:22;;;;;;;;;;;;;;;4.41;100.00;97662.88;4915000;29;19926;-81
2024/03/28 18:43:49;;;;;;;;;;;;;;;4.31;100.00;97657.25;4914270;29;19974;-87
2024/03/28 18:46:14;;;;;;;;;;;;;;;4.35;100.00;97655.31;4915070;29;19973;-80
2024/03/28 18:48:40;;;;;;;;;;;;;;;4.30;100.00;97639.81;4914463;29;20367;-85
2024/03/28 18:51:06;;;;;;;;;;;;;;;4.24;100.00;97639.28;4915481;29;19923;-81
2024/03/28 18:53:31;;;;;;;;;;;;;;;4.36;100.00;97646.53;4914969;29;19930;-85
2024/03/28 18:55:57;;;;;;;;;;;;;;;4.27;100.00;97649.63;4915081;29;19923;-83
2024/03/28 18:58:22;;;;;;;;;;;;;;;4.30;100.00;97652.09;4914123;29;20055;-81
2024/03/28 19:00:48;;;;;;;;;;;;;;;4.29;100.00;97666.13;4914536;29;20054;-82
2024/03/28 19:03:16;;;;;;;;;;;;;;;4.28;100.00;97661.81;4897836;29;19943;-81
2024/03/28 19:05:41;;;;;;;;;;;;;;;4.33;100.00;97665.88;4914601;29;19927;-83
2024/03/28 19:08:07;;;;;;;;;;;;;;;4.28;100.00;97667.06;4914150;29;19923;-82
2024/03/28 19:10:33;;;;;;;;;;;;;;;4.29;100.00;97663.50;4898133;29;20947;-81
2024/03/28 19:12:58;;;;;;;;;;;;;;;4.32;100.00;97668.59;4913398;29;19927;-82
2024/03/28 19:15:24;;;;;;;;;;;;;;;4.21;100.00;97670.91;4914705;29;19966;-81
2024/03/28 19:17:51;;;;;;;;;;;;;;;4.25;100.00;97683.78;4915191;29;19923;-81
2024/03/28 19:20:17;;;;;;;;;;;;;;;4.23;100.00;97679.53;4897550;29;19950;-82
2024/03/28 19:22:42;;;;;;;;;;;;;;;4.19;100.00;97687.56;4915317;29;20375;-85
2024/03/28 19:25:08;;;;;;;;;;;;;;;4.24;100.00;97681.25;4914871;29;19931;-82
2024/03/28 19:27:33;;;;;;;;;;;;;;;4.27;100.00;97684.53;4914227;29;19979;-86
2024/03/28 19:30:00;;;;;;;;;;;;;;;4.29;100.00;97684.47;4915210;29;19938;-83
2024/03/28 19:32:33;;;;;;;;;;;;;;;4.34;100.00;97690.31;4914229;29;19958;-83
2024/03/28 19:34:58;;;;;;;;;;;;;;;4.28;100.00;97688.88;4914341;29;19934;-83
2024/03/28 19:37:23;;;;;;;;;;;;;;;4.30;100.00;97687.03;4914873;29;19923;-81
2024/03/28 19:39:49;;;;;;;;;;;;;;;4.25;100.00;97689.03;4915322;29;19931;-83
2024/03/28 19:42:18;;;;;;;;;;;;;;;4.31;100.00;97690.50;4913710;29;19986;-83
2024/03/28 19:44:44;;;;;;;;;;;;;;;4.33;100.00;97686.03;4897400;29;19930;-82
2024/03/28 19:47:09;;;;;;;;;;;;;;;4.29;100.00;97698.44;4897751;29;19927;-84
2024/03/28 19:49:34;;;;;;;;;;;;;;;4.24;100.00;97692.56;4914668;29;19971;-84
2024/03/28 19:52:00;;;;;;;;;;;;;;;4.27;100.00;97702.06;4900837;29;19923;-85
2024/03/28 19:54:25;;;;;;;;;;;;;;;4.21;100.00;97697.13;4917598;29;19963;-85
2024/03/28 19:56:50;;;;;;;;;;;;;;;4.14;100.00;97694.81;4917113;29;19950;-86
2024/03/28 19:59:16;;;;;;;;;;;;;;;4.20;100.00;97696.28;4917977;29;19935;-84
2024/03/28 20:01:42;;;;;;;;;;;;;;;4.19;100.00;97694.56;4901355;29;19934;-82
2024/03/28 20:04:07;;;;;;;;;;;;;;;4.23;100.00;97684.78;4918365;29;19923;-83
2024/03/28 20:06:33;;;;;;;;;;;;;;;4.21;100.00;97690.09;4916948;29;20331;-86
2024/03/28 20:08:59;;;;;;;;;;;;;;;4.30;100.00;97686.19;4917830;29;19927;-86
2024/03/28 20:11:24;;;;;;;;;;;;;;;4.70;100.00;97687.59;4916821;29;20058;-83
2024/03/28 20:13:49;;;;;;;;;;;;;;;5.13;100.00;97694.94;4917533;29;20271;-81
2024/03/28 20:16:15;;;;;;;;;;;;;;;5.48;100.00;97684.28;4917262;29;19941;-84
2024/03/28 20:18:41;;;;;;;;;;;;;;;5.69;100.00;97687.50;4917861;29;20063;-88
2024/03/28 20:21:06;;;;;;;;;;;;;;;5.85;100.00;97684.84;4917096;29;20346;-83
2024/03/28 20:23:31;;;;;;;;;;;;;;;5.96;100.00;97682.47;4917576;29;19934;-82
2024/03/28 20:26:03;;;;;;;;;;;;;;;6.09;100.00;97682.63;4917968;29;20335;-84
2024/03/28 20:28:28;;;;;;;;;;;;;;;6.18;100.00;97683.88;4915409;29;19927;-85
2024/03/28 20:30:54;;;;;;;;;;;;;;;6.25;100.00;97682.56;4900355;29;20275;-85
2024/03/28 20:33:19;;;;;;;;;;;;;;;6.32;100.00;97693.59;4899820;29;19923;-82
2024/03/28 20:35:45;;;;;;;;;;;;;;;6.41;100.00;97694.81;4917461;29;19923;-83
2024/03/28 20:38:10;;;;;;;;;;;;;;;6.46;100.00;97690.13;4917400;29;20430;-81
2024/03/28 20:40:35;;;;;;;;;;;;;;;6.51;100.00;97698.59;4916676;29;19982;-81
2024/03/28 20:43:01;;;;;;;;;;;;;;;6.56;100.00;97707.09;4916321;29;19933;-82
2024/03/28 20:45:33;;;;;;;;;;;;;;;6.58;100.00;97702.56;4899369;29;19943;-83
2024/03/28 20:47:58;;;;;;;;;;;;;;;6.65;100.00;97705.69;4917290;29;20397;-83
2024/03/28 20:50:23;;;;;;;;;;;;;;;6.68;100.00;97705.50;4916887;29;19919;-82
2024/03/28 20:52:49;;;;;;;;;;;;;;;6.70;100.00;97704.47;4900281;29;20282;-85
2024/03/28 20:55:14;;;;;;;;;;;;;;;6.75;100.00;97706.84;4900019;29;19930;-85
2024/03/28 20:57:39;;;;;;;;;;;;;;;6.79;100.00;97707.47;4916131;29;20006;-81
2024/03/28 21:00:05;;;;;;;;;;;;;;;6.82;100.00;97712.56;4916751;29;19930;-84
2024/03/28 21:02:30;;;;;;;;;;;;;;;6.86;100.00;97716.69;4899545;29;19923;-84
2024/03/28 21:04:55;;;;;;;;;;;;;;;6.89;100.00;97714.75;4916623;29;20097;-83
2024/03/28 21:12:48;;;;;;;;;;;;;;;6.98;100.00;97723.84;4915488;29;19988;-82
2024/03/28 21:15:14;;;;;;;;;;;;;;;7.03;100.00;97720.94;4899651;29;20030;-83
2024/03/28 21:17:39;;;;;;;;;;;;;;;7.06;100.00;97724.22;4899480;29;19919;-80
2024/03/28 21:20:04;;;;;;;;;;;;;;;7.07;100.00;97736.47;4915483;29;19970;-81
2024/03/28 21:22:29;;;;;;;;;;;;;;;7.09;100.00;97721.41;4899858;29;19976;-81
2024/03/28 21:24:55;;;;;;;;;;;;;;;7.12;100.00;97722.19;4916319;29;19926;-83
2024/03/28 21:27:20;;;;;;;;;;;;;;;7.15;100.00;97727.22;4914815;29;19923;-81
2024/03/28 21:29:45;;;;;;;;;;;;;;;7.15;100.00;97714.06;4915480;29;20030;-78